createdAt,value
2017-09-10T00:00:46.045Z,0
2017-09-10T00:01:47.751Z,0
2017-09-10T00:02:49.434Z,0
2017-09-10T00:03:51.148Z,0
2017-09-10T00:04:52.910Z,0
2017-09-10T00:05:54.623Z,0
2017-09-10T00:06:56.343Z,0
2017-09-10T00:07:58.053Z,0
2017-09-10T00:08:59.758Z,0
2017-09-10T00:10:01.477Z,0
2017-09-10T00:11:03.160Z,0
2017-09-10T00:12:04.863Z,0
2017-09-10T00:13:06.558Z,0
2017-09-10T00:14:08.266Z,0
2017-09-10T00:15:09.963Z,0
2017-09-10T00:16:11.678Z,0
2017-09-10T00:17:13.397Z,0
2017-09-10T00:18:15.140Z,0
2017-09-10T00:19:16.832Z,0
2017-09-10T00:20:18.528Z,0
2017-09-10T00:21:20.241Z,0
2017-09-10T00:22:21.940Z,0
2017-09-10T00:23:23.640Z,0
2017-09-10T00:24:25.361Z,0
2017-09-10T00:25:27.094Z,0
2017-09-10T00:26:28.779Z,0
2017-09-10T00:27:30.499Z,0
2017-09-10T00:28:32.215Z,0
2017-09-10T00:29:33.924Z,0
2017-09-10T00:30:35.642Z,0
2017-09-10T00:31:37.384Z,0
2017-09-10T00:32:39.093Z,0
2017-09-10T00:33:40.812Z,0
2017-09-10T00:34:42.529Z,0
2017-09-10T00:35:44.251Z,0
2017-09-10T00:36:45.942Z,0
2017-09-10T00:37:47.655Z,0
2017-09-10T00:38:49.352Z,0
2017-09-10T00:39:51.080Z,0
2017-09-10T00:40:52.789Z,0
2017-09-10T00:41:54.510Z,0
2017-09-10T00:42:56.220Z,0
2017-09-10T00:43:57.938Z,0
2017-09-10T00:44:59.640Z,0
2017-09-10T00:46:01.372Z,0
2017-09-10T00:47:03.087Z,0
2017-09-10T00:48:04.803Z,0
2017-09-10T00:49:06.521Z,0
2017-09-10T00:50:08.235Z,0
2017-09-10T00:51:09.938Z,0
2017-09-10T00:52:11.688Z,0
2017-09-10T00:53:13.422Z,0
2017-09-10T00:54:15.125Z,0
2017-09-10T00:55:16.839Z,0
2017-09-10T00:56:18.547Z,0
2017-09-10T00:57:20.277Z,0
2017-09-10T00:58:21.984Z,0
2017-09-10T00:59:23.700Z,0
2017-09-10T01:00:25.418Z,0
2017-09-10T01:01:27.133Z,0
2017-09-10T01:02:28.843Z,0
2017-09-10T01:03:30.547Z,0
2017-09-10T01:04:32.252Z,0
2017-09-10T01:05:33.961Z,0
2017-09-10T01:06:35.720Z,0
2017-09-10T01:07:38.286Z,0
2017-09-10T01:08:39.971Z,0
2017-09-10T01:09:41.703Z,0
2017-09-10T01:10:43.392Z,0
2017-09-10T01:11:45.153Z,0
2017-09-10T01:12:46.866Z,0
2017-09-10T01:13:48.575Z,0
2017-09-10T01:14:50.284Z,0
2017-09-10T01:15:52.009Z,0
2017-09-10T01:16:53.710Z,0
2017-09-10T01:17:55.420Z,0
2017-09-10T01:18:57.130Z,0
2017-09-10T01:19:58.819Z,0
2017-09-10T01:21:00.542Z,0
2017-09-10T01:22:02.253Z,0
2017-09-10T01:23:03.974Z,0
2017-09-10T01:24:05.658Z,0
2017-09-10T01:25:07.376Z,0
2017-09-10T01:26:09.091Z,0
2017-09-10T01:27:10.785Z,0
2017-09-10T01:28:12.486Z,0
2017-09-10T01:29:14.200Z,0
2017-09-10T01:30:15.886Z,0
2017-09-10T01:31:17.590Z,0
2017-09-10T01:32:19.319Z,0
2017-09-10T01:33:21.057Z,0
2017-09-10T01:34:22.779Z,0
2017-09-10T01:35:24.494Z,0
2017-09-10T01:36:26.192Z,0
2017-09-10T01:37:27.933Z,0
2017-09-10T01:38:29.637Z,0
2017-09-10T01:39:31.326Z,0
2017-09-10T01:40:33.037Z,0
2017-09-10T01:41:34.781Z,0
2017-09-10T01:42:36.502Z,0
2017-09-10T01:43:38.215Z,0
2017-09-10T01:44:39.902Z,0
2017-09-10T01:45:41.620Z,0
2017-09-10T01:46:43.372Z,0
2017-09-10T01:47:45.104Z,0
2017-09-10T01:48:46.908Z,0
2017-09-10T01:49:48.602Z,0
2017-09-10T01:50:50.320Z,0
2017-09-10T01:51:52.018Z,0
2017-09-10T01:52:53.742Z,0
2017-09-10T01:53:55.445Z,0
2017-09-10T01:54:57.154Z,0
2017-09-10T01:55:58.885Z,0
2017-09-10T01:57:00.601Z,0
2017-09-10T01:58:02.293Z,0
2017-09-10T01:59:04.070Z,0
2017-09-10T02:00:05.773Z,0
2017-09-10T02:01:07.472Z,0
2017-09-10T02:02:09.175Z,0
2017-09-10T02:03:10.887Z,0
2017-09-10T02:04:12.611Z,0
2017-09-10T02:05:14.305Z,0
2017-09-10T02:06:16.013Z,0
2017-09-10T02:07:17.739Z,0
2017-09-10T02:08:19.475Z,0
2017-09-10T02:09:21.198Z,0
2017-09-10T02:10:22.893Z,0
2017-09-10T02:11:24.595Z,0
2017-09-10T02:12:26.310Z,0
2017-09-10T02:13:28.023Z,0
2017-09-10T02:14:29.726Z,0
2017-09-10T02:15:31.435Z,0
2017-09-10T02:16:33.148Z,0
2017-09-10T02:17:34.900Z,0
2017-09-10T02:18:36.619Z,0
2017-09-10T02:19:38.319Z,0
2017-09-10T02:20:40.070Z,0
2017-09-10T02:21:41.819Z,0
2017-09-10T02:22:43.553Z,0
2017-09-10T02:23:45.290Z,0
2017-09-10T02:24:47.083Z,0
2017-09-10T02:25:48.800Z,0
2017-09-10T02:26:50.521Z,0
2017-09-10T02:27:52.240Z,0
2017-09-10T02:28:53.983Z,0
2017-09-10T02:29:55.677Z,0
2017-09-10T02:30:57.410Z,0
2017-09-10T02:31:59.120Z,0
2017-09-10T02:33:00.820Z,0
2017-09-10T02:34:02.544Z,0
2017-09-10T02:35:04.233Z,0
2017-09-10T02:36:05.943Z,0
2017-09-10T02:37:07.668Z,0
2017-09-10T02:38:09.380Z,0
2017-09-10T02:39:11.076Z,0
2017-09-10T02:40:12.769Z,0
2017-09-10T02:41:14.476Z,0
2017-09-10T02:42:16.173Z,0
2017-09-10T02:43:17.895Z,0
2017-09-10T02:44:19.590Z,0
2017-09-10T02:45:21.291Z,0
2017-09-10T02:46:22.998Z,0
2017-09-10T02:47:24.709Z,0
2017-09-10T02:48:26.425Z,0
2017-09-10T02:49:28.103Z,0
2017-09-10T02:50:29.811Z,0
2017-09-10T02:51:31.511Z,0
2017-09-10T02:52:33.200Z,0
2017-09-10T02:53:34.917Z,0
2017-09-10T02:54:36.639Z,0
2017-09-10T02:55:38.382Z,0
2017-09-10T02:56:40.085Z,0
2017-09-10T02:57:41.780Z,0
2017-09-10T02:58:43.487Z,0
2017-09-10T02:59:45.173Z,0
2017-09-10T03:00:46.884Z,0
2017-09-10T03:01:48.588Z,0
2017-09-10T03:02:50.290Z,0
2017-09-10T03:03:52.015Z,0
2017-09-10T03:04:53.719Z,0
2017-09-10T03:05:55.446Z,0
2017-09-10T03:06:57.151Z,0
2017-09-10T03:07:58.858Z,0
2017-09-10T03:09:00.569Z,0
2017-09-10T03:10:02.272Z,0
2017-09-10T03:11:03.985Z,0
2017-09-10T03:12:05.705Z,0
2017-09-10T03:13:07.420Z,0
2017-09-10T03:14:09.101Z,0
2017-09-10T03:15:10.812Z,0
2017-09-10T03:16:12.519Z,0
2017-09-10T03:17:14.227Z,0
2017-09-10T03:18:15.944Z,0
2017-09-10T03:19:17.645Z,0
2017-09-10T03:20:19.368Z,0
2017-09-10T03:21:21.028Z,0
2017-09-10T03:22:22.733Z,0
2017-09-10T03:23:24.430Z,0
2017-09-10T03:24:26.164Z,0
2017-09-10T03:25:27.852Z,0
2017-09-10T03:26:29.560Z,0
2017-09-10T03:27:31.251Z,0
2017-09-10T03:28:32.935Z,0
2017-09-10T03:29:34.639Z,0
2017-09-10T03:30:36.343Z,0
2017-09-10T03:31:38.039Z,0
2017-09-10T03:32:39.740Z,0
2017-09-10T03:33:41.429Z,0
2017-09-10T03:34:43.119Z,0
2017-09-10T03:35:44.822Z,0
2017-09-10T03:36:46.532Z,0
2017-09-10T03:37:48.242Z,0
2017-09-10T03:38:49.962Z,0
2017-09-10T03:39:51.710Z,0
2017-09-10T03:40:53.401Z,0
2017-09-10T03:41:55.110Z,0
2017-09-10T03:42:56.811Z,0
2017-09-10T03:43:58.537Z,0
2017-09-10T03:45:00.238Z,0
2017-09-10T03:46:01.956Z,0
2017-09-10T03:47:03.629Z,0
2017-09-10T03:48:05.358Z,0
2017-09-10T03:49:07.040Z,0
2017-09-10T03:50:08.739Z,0
2017-09-10T03:51:10.454Z,0
2017-09-10T03:52:12.146Z,0
2017-09-10T03:53:13.863Z,0
2017-09-10T03:54:15.570Z,0
2017-09-10T03:55:17.285Z,0
2017-09-10T03:56:18.964Z,0
2017-09-10T03:57:20.651Z,0
2017-09-10T03:58:22.356Z,0
2017-09-10T03:59:24.055Z,0
2017-09-10T04:00:25.754Z,0
2017-09-10T04:01:27.450Z,0
2017-09-10T04:02:29.139Z,0
2017-09-10T04:03:30.854Z,0
2017-09-10T04:04:32.567Z,0
2017-09-10T04:05:34.249Z,0
2017-09-10T04:06:35.955Z,0
2017-09-10T04:07:37.642Z,0
2017-09-10T04:08:39.345Z,0
2017-09-10T04:09:41.045Z,0
2017-09-10T04:10:42.723Z,0
2017-09-10T04:11:44.404Z,0
2017-09-10T04:12:46.106Z,0
2017-09-10T04:13:47.840Z,0
2017-09-10T04:14:49.570Z,0
2017-09-10T04:15:51.265Z,0
2017-09-10T04:16:52.982Z,0
2017-09-10T04:17:54.696Z,0
2017-09-10T04:18:56.401Z,0
2017-09-10T04:19:58.085Z,0
2017-09-10T04:20:59.795Z,0
2017-09-10T04:22:01.512Z,0
2017-09-10T04:23:03.195Z,0
2017-09-10T04:24:04.895Z,0
2017-09-10T04:25:06.596Z,0
2017-09-10T04:26:08.292Z,0
2017-09-10T04:27:09.971Z,0
2017-09-10T04:28:11.667Z,0
2017-09-10T04:29:13.372Z,0
2017-09-10T04:30:15.093Z,0
2017-09-10T04:31:16.775Z,0
2017-09-10T04:32:18.529Z,0
2017-09-10T04:33:20.230Z,0
2017-09-10T04:34:21.946Z,0
2017-09-10T04:35:23.630Z,0
2017-09-10T04:36:25.320Z,0
2017-09-10T04:37:27.008Z,0
2017-09-10T04:38:28.691Z,0
2017-09-10T04:39:30.399Z,0
2017-09-10T04:40:32.095Z,0
2017-09-10T04:41:33.822Z,0
2017-09-10T04:42:35.539Z,0
2017-09-10T04:43:37.258Z,0
2017-09-10T04:44:39.017Z,0
2017-09-10T04:45:40.728Z,0
2017-09-10T04:46:42.424Z,0
2017-09-10T04:47:44.154Z,0
2017-09-10T04:48:45.884Z,0
2017-09-10T04:49:47.579Z,0
2017-09-10T04:50:49.277Z,0
2017-09-10T04:51:50.987Z,0
2017-09-10T04:52:52.693Z,0
2017-09-10T04:53:54.390Z,0
2017-09-10T04:54:56.119Z,0
2017-09-10T04:55:57.819Z,0
2017-09-10T04:56:59.510Z,0
2017-09-10T04:58:01.187Z,0
2017-09-10T04:59:02.921Z,0
2017-09-10T05:00:04.637Z,0
2017-09-10T05:01:06.339Z,0
2017-09-10T05:02:08.033Z,0
2017-09-10T05:03:09.735Z,0
2017-09-10T05:04:11.427Z,0
2017-09-10T05:05:13.114Z,0
2017-09-10T05:06:14.819Z,0
2017-09-10T05:07:16.520Z,0
2017-09-10T05:08:18.209Z,0
2017-09-10T05:09:19.929Z,0
2017-09-10T05:10:21.614Z,0
2017-09-10T05:11:23.318Z,0
2017-09-10T05:12:25.004Z,0
2017-09-10T05:13:26.704Z,0
2017-09-10T05:14:28.397Z,0
2017-09-10T05:15:30.104Z,0
2017-09-10T05:16:31.796Z,0
2017-09-10T05:17:33.505Z,0
2017-09-10T05:18:35.216Z,0
2017-09-10T05:19:36.934Z,0
2017-09-10T05:20:38.647Z,0
2017-09-10T05:21:40.346Z,0
2017-09-10T05:22:42.046Z,0
2017-09-10T05:23:43.742Z,0
2017-09-10T05:24:45.439Z,0
2017-09-10T05:25:47.128Z,0
2017-09-10T05:26:48.820Z,0
2017-09-10T05:27:50.524Z,0
2017-09-10T05:28:52.204Z,0
2017-09-10T05:29:53.900Z,0
2017-09-10T05:30:55.603Z,0
2017-09-10T05:31:57.313Z,0
2017-09-10T05:32:59.003Z,0
2017-09-10T05:34:00.721Z,0
2017-09-10T05:35:02.472Z,0
2017-09-10T05:36:04.172Z,0
2017-09-10T05:37:05.877Z,0
2017-09-10T05:38:07.604Z,0
2017-09-10T05:39:09.315Z,0
2017-09-10T05:40:11.003Z,0
2017-09-10T05:41:12.756Z,0
2017-09-10T05:42:14.432Z,0
2017-09-10T05:43:16.126Z,0
2017-09-10T05:44:17.827Z,0
2017-09-10T05:45:19.530Z,0
2017-09-10T05:46:21.227Z,0
2017-09-10T05:47:22.954Z,4
2017-09-10T05:48:24.674Z,4
2017-09-10T05:49:26.376Z,0
2017-09-10T05:50:28.064Z,4
2017-09-10T05:51:29.761Z,4
2017-09-10T05:52:31.448Z,8
2017-09-10T05:53:33.161Z,8
2017-09-10T05:54:34.867Z,8
2017-09-10T05:55:36.575Z,12
2017-09-10T05:56:38.270Z,12
2017-09-10T05:57:39.992Z,16
2017-09-10T05:58:41.685Z,20
2017-09-10T05:59:43.375Z,28
2017-09-10T06:00:45.068Z,36
2017-09-10T06:01:46.791Z,40
2017-09-10T06:02:48.473Z,48
2017-09-10T06:03:50.171Z,56
2017-09-10T06:04:51.895Z,68
2017-09-10T06:05:53.574Z,80
2017-09-10T06:06:55.378Z,96
2017-09-10T06:07:57.225Z,112
2017-09-10T06:08:58.735Z,124
2017-09-10T06:10:00.475Z,144
2017-09-10T06:11:02.156Z,164
2017-09-10T06:12:03.847Z,184
2017-09-10T06:13:05.529Z,208
2017-09-10T06:14:07.264Z,232
2017-09-10T06:15:08.998Z,260
2017-09-10T06:16:10.806Z,292
2017-09-10T06:17:12.544Z,320
2017-09-10T06:18:14.248Z,352
2017-09-10T06:19:15.936Z,380
2017-09-10T06:20:17.648Z,412
2017-09-10T06:21:19.341Z,444
2017-09-10T06:22:21.033Z,476
2017-09-10T06:23:22.729Z,508
2017-09-10T06:24:24.436Z,544
2017-09-10T06:25:26.224Z,576
2017-09-10T06:26:27.994Z,608
2017-09-10T06:27:29.685Z,644
2017-09-10T06:28:31.394Z,680
2017-09-10T06:29:33.077Z,712
2017-09-10T06:30:34.949Z,748
2017-09-10T06:31:36.681Z,784
2017-09-10T06:32:38.379Z,816
2017-09-10T06:33:40.083Z,852
2017-09-10T06:34:41.838Z,884
2017-09-10T06:35:43.551Z,920
2017-09-10T06:36:45.243Z,956
2017-09-10T06:37:46.941Z,988
2017-09-10T06:38:48.618Z,1024
2017-09-10T06:39:50.389Z,1056
2017-09-10T06:40:52.083Z,1088
2017-09-10T06:41:53.810Z,1128
2017-09-10T06:42:55.509Z,1156
2017-09-10T06:43:57.224Z,1192
2017-09-10T06:44:58.938Z,1224
2017-09-10T06:46:00.627Z,1264
2017-09-10T06:47:02.345Z,1292
2017-09-10T06:48:04.053Z,1328
2017-09-10T06:49:05.769Z,1364
2017-09-10T06:50:07.459Z,1396
2017-09-10T06:51:09.172Z,1424
2017-09-10T06:52:10.858Z,1456
2017-09-10T06:53:12.567Z,1484
2017-09-10T06:54:14.278Z,1508
2017-09-10T06:55:15.977Z,1540
2017-09-10T06:56:17.699Z,1584
2017-09-10T06:57:19.400Z,1608
2017-09-10T06:58:21.094Z,1640
2017-09-10T06:59:22.791Z,1664
2017-09-10T07:00:24.476Z,1692
2017-09-10T07:01:26.282Z,1724
2017-09-10T07:02:27.989Z,1756
2017-09-10T07:03:29.693Z,1780
2017-09-10T07:04:31.402Z,1808
2017-09-10T07:05:33.125Z,1832
2017-09-10T07:06:34.824Z,1860
2017-09-10T07:07:36.505Z,1888
2017-09-10T07:08:38.243Z,1916
2017-09-10T07:09:39.962Z,1940
2017-09-10T07:10:41.699Z,1968
2017-09-10T07:11:43.404Z,1988
2017-09-10T07:12:45.097Z,2012
2017-09-10T07:13:46.806Z,2036
2017-09-10T07:14:48.529Z,2060
2017-09-10T07:15:50.232Z,2088
2017-09-10T07:16:51.947Z,2108
2017-09-10T07:17:53.651Z,2140
2017-09-10T07:18:55.337Z,2164
2017-09-10T07:19:57.037Z,2188
2017-09-10T07:20:58.747Z,2212
2017-09-10T07:22:00.438Z,2236
2017-09-10T07:23:02.157Z,2252
2017-09-10T07:24:03.864Z,2276
2017-09-10T07:25:05.563Z,2296
2017-09-10T07:26:07.258Z,2316
2017-09-10T07:27:08.963Z,2340
2017-09-10T07:28:10.680Z,2360
2017-09-10T07:29:12.387Z,2384
2017-09-10T07:30:14.114Z,2400
2017-09-10T07:31:15.800Z,2416
2017-09-10T07:32:17.542Z,2436
2017-09-10T07:33:19.265Z,2452
2017-09-10T07:34:20.968Z,2472
2017-09-10T07:35:22.682Z,2488
2017-09-10T07:36:24.405Z,2504
2017-09-10T07:37:26.148Z,2520
2017-09-10T07:38:27.839Z,2536
2017-09-10T07:39:29.539Z,2552
2017-09-10T07:40:31.222Z,2568
2017-09-10T07:41:32.920Z,2580
2017-09-10T07:42:34.636Z,2588
2017-09-10T07:43:36.326Z,2612
2017-09-10T07:44:38.093Z,2624
2017-09-10T07:45:39.792Z,2644
2017-09-10T07:46:41.480Z,2660
2017-09-10T07:47:43.221Z,2672
2017-09-10T07:48:44.931Z,2688
2017-09-10T07:49:46.657Z,2700
2017-09-10T07:50:48.381Z,2708
2017-09-10T07:51:50.132Z,2720
2017-09-10T07:52:51.840Z,2740
2017-09-10T07:53:53.569Z,2756
2017-09-10T07:54:55.439Z,2768
2017-09-10T07:55:57.154Z,2776
2017-09-10T07:56:58.869Z,2792
2017-09-10T07:58:00.591Z,2796
2017-09-10T07:59:02.297Z,2812
2017-09-10T08:00:03.995Z,2816
2017-09-10T08:01:05.702Z,2828
2017-09-10T08:02:07.396Z,2828
2017-09-10T08:03:09.139Z,2836
2017-09-10T08:04:10.844Z,2852
2017-09-10T08:05:12.559Z,2852
2017-09-10T08:06:14.270Z,2872
2017-09-10T08:07:15.995Z,2892
2017-09-10T08:08:17.725Z,2900
2017-09-10T08:09:19.442Z,2908
2017-09-10T08:10:21.172Z,2920
2017-09-10T08:11:22.912Z,2924
2017-09-10T08:12:24.643Z,2936
2017-09-10T08:13:26.371Z,2944
2017-09-10T08:14:28.122Z,2952
2017-09-10T08:15:29.831Z,2960
2017-09-10T08:16:31.553Z,2960
2017-09-10T08:17:33.273Z,2972
2017-09-10T08:18:35.004Z,2980
2017-09-10T08:19:36.719Z,2988
2017-09-10T08:20:38.419Z,2996
2017-09-10T08:21:40.160Z,3000
2017-09-10T08:22:41.872Z,3008
2017-09-10T08:23:43.577Z,3016
2017-09-10T08:24:45.309Z,3024
2017-09-10T08:25:47.023Z,3036
2017-09-10T08:26:48.727Z,3040
2017-09-10T08:27:50.452Z,3040
2017-09-10T08:28:52.280Z,3052
2017-09-10T08:29:53.970Z,3060
2017-09-10T08:30:55.668Z,3064
2017-09-10T08:31:57.389Z,3076
2017-09-10T08:32:59.124Z,3084
2017-09-10T08:34:00.840Z,3088
2017-09-10T08:35:02.567Z,3104
2017-09-10T08:36:04.288Z,3116
2017-09-10T08:37:05.979Z,3128
2017-09-10T08:38:07.707Z,3140
2017-09-10T08:39:09.430Z,3148
2017-09-10T08:40:11.145Z,3156
2017-09-10T08:41:12.872Z,3164
2017-09-10T08:42:14.671Z,3168
2017-09-10T08:43:16.366Z,3172
2017-09-10T08:44:18.095Z,3184
2017-09-10T08:45:19.809Z,3192
2017-09-10T08:46:21.503Z,3196
2017-09-10T08:47:23.224Z,3208
2017-09-10T08:48:24.924Z,3212
2017-09-10T08:49:26.684Z,3212
2017-09-10T08:50:28.415Z,3220
2017-09-10T08:51:30.148Z,3228
2017-09-10T08:52:31.895Z,3232
2017-09-10T08:53:33.646Z,3240
2017-09-10T08:54:35.369Z,3248
2017-09-10T08:55:37.096Z,3252
2017-09-10T08:56:38.835Z,3260
2017-09-10T08:57:40.553Z,3260
2017-09-10T08:58:42.332Z,3268
2017-09-10T08:59:44.060Z,3272
2017-09-10T09:00:45.759Z,3280
2017-09-10T09:01:47.455Z,3296
2017-09-10T09:02:49.192Z,3300
2017-09-10T09:03:50.898Z,3304
2017-09-10T09:04:52.590Z,3300
2017-09-10T09:05:54.340Z,3308
2017-09-10T09:06:56.070Z,3320
2017-09-10T09:07:57.781Z,3324
2017-09-10T09:08:59.493Z,3324
2017-09-10T09:10:01.206Z,3328
2017-09-10T09:11:02.937Z,3328
2017-09-10T09:12:04.625Z,3340
2017-09-10T09:13:06.373Z,3336
2017-09-10T09:14:08.086Z,3336
2017-09-10T09:15:09.799Z,3348
2017-09-10T09:16:11.529Z,3356
2017-09-10T09:17:13.297Z,3368
2017-09-10T09:18:15.011Z,3372
2017-09-10T09:19:16.725Z,3384
2017-09-10T09:20:18.431Z,3392
2017-09-10T09:21:20.129Z,3400
2017-09-10T09:22:21.862Z,3412
2017-09-10T09:23:23.579Z,3420
2017-09-10T09:24:25.295Z,3424
2017-09-10T09:25:27.001Z,3440
2017-09-10T09:26:28.782Z,3448
2017-09-10T09:27:30.501Z,3448
2017-09-10T09:28:32.208Z,3448
2017-09-10T09:29:33.976Z,3452
2017-09-10T09:30:35.740Z,3464
2017-09-10T09:31:37.622Z,3472
2017-09-10T09:32:39.410Z,3472
2017-09-10T09:33:41.218Z,3480
2017-09-10T09:34:42.816Z,3484
2017-09-10T09:35:44.530Z,3496
2017-09-10T09:36:46.248Z,3504
2017-09-10T09:37:47.975Z,3512
2017-09-10T09:38:49.692Z,3512
2017-09-10T09:39:51.467Z,3516
2017-09-10T09:40:53.200Z,3520
2017-09-10T09:41:54.924Z,3532
2017-09-10T09:42:56.666Z,3540
2017-09-10T09:43:58.383Z,3552
2017-09-10T09:45:00.104Z,3556
2017-09-10T09:46:01.805Z,3552
2017-09-10T09:47:03.515Z,3584
2017-09-10T09:48:05.236Z,3592
2017-09-10T09:49:06.936Z,3612
2017-09-10T09:50:08.653Z,3628
2017-09-10T09:51:10.364Z,3648
2017-09-10T09:52:12.073Z,3652
2017-09-10T09:53:13.808Z,3668
2017-09-10T09:54:15.511Z,3684
2017-09-10T09:55:17.231Z,3696
2017-09-10T09:56:18.930Z,3712
2017-09-10T09:57:20.629Z,3728
2017-09-10T09:58:22.328Z,3744
2017-09-10T09:59:24.023Z,3756
2017-09-10T10:00:25.794Z,3776
2017-09-10T10:01:27.496Z,3808
2017-09-10T10:02:29.231Z,3852
2017-09-10T10:03:30.968Z,3872
2017-09-10T10:04:32.659Z,3896
2017-09-10T10:05:34.354Z,3900
2017-09-10T10:06:36.059Z,3896
2017-09-10T10:07:37.753Z,3904
2017-09-10T10:08:39.451Z,3896
2017-09-10T10:09:41.161Z,3900
2017-09-10T10:10:44.275Z,3904
2017-09-10T10:11:46.036Z,3908
2017-09-10T10:12:48.031Z,3920
2017-09-10T10:13:49.775Z,3940
2017-09-10T10:14:51.474Z,3948
2017-09-10T10:15:53.862Z,3964
2017-09-10T10:16:55.557Z,3972
2017-09-10T10:17:57.327Z,3984
2017-09-10T10:18:59.041Z,3992
2017-09-10T10:20:00.756Z,3988
2017-09-10T10:21:02.469Z,4000
2017-09-10T10:22:04.175Z,4000
2017-09-10T10:23:05.875Z,4000
2017-09-10T10:24:07.569Z,4008
2017-09-10T10:25:09.288Z,4016
2017-09-10T10:26:10.990Z,4012
2017-09-10T10:27:12.721Z,4044
2017-09-10T10:28:14.448Z,4048
2017-09-10T10:29:16.148Z,4060
2017-09-10T10:30:17.895Z,4068
2017-09-10T10:31:19.587Z,4088
2017-09-10T10:32:21.286Z,4116
2017-09-10T10:33:22.995Z,4140
2017-09-10T10:34:24.714Z,4160
2017-09-10T10:35:26.437Z,4176
2017-09-10T10:36:28.141Z,4200
2017-09-10T10:37:29.847Z,4220
2017-09-10T10:38:31.556Z,4244
2017-09-10T10:39:33.258Z,4268
2017-09-10T10:40:34.964Z,4304
2017-09-10T10:41:36.726Z,4312
2017-09-10T10:42:38.438Z,4352
2017-09-10T10:43:40.148Z,4368
2017-09-10T10:44:41.855Z,4400
2017-09-10T10:45:43.571Z,4436
2017-09-10T10:46:45.275Z,4460
2017-09-10T10:47:46.980Z,4468
2017-09-10T10:48:48.658Z,4396
2017-09-10T10:49:50.352Z,4544
2017-09-10T10:50:52.062Z,4576
2017-09-10T10:51:53.772Z,4576
2017-09-10T10:52:55.976Z,4588
2017-09-10T10:53:57.697Z,4604
2017-09-10T10:54:59.413Z,4604
2017-09-10T10:56:01.110Z,4636
2017-09-10T10:57:02.829Z,4640
2017-09-10T10:58:04.617Z,4680
2017-09-10T10:59:06.351Z,4696
2017-09-10T11:00:08.115Z,4704
2017-09-10T11:01:09.835Z,4752
2017-09-10T11:02:11.561Z,4940
2017-09-10T11:03:13.306Z,5072
2017-09-10T11:04:15.009Z,5268
2017-09-10T11:05:16.724Z,5340
2017-09-10T11:06:18.438Z,5364
2017-09-10T11:07:20.151Z,5448
2017-09-10T11:08:21.854Z,5648
2017-09-10T11:09:23.607Z,5700
2017-09-10T11:10:25.337Z,5752
2017-09-10T11:11:27.050Z,5780
2017-09-10T11:12:28.848Z,5868
2017-09-10T11:13:30.613Z,5912
2017-09-10T11:14:32.308Z,6088
2017-09-10T11:15:34.035Z,6212
2017-09-10T11:16:35.759Z,6296
2017-09-10T11:17:37.481Z,6392
2017-09-10T11:18:39.242Z,6940
2017-09-10T11:19:40.991Z,8624
2017-09-10T11:20:42.707Z,12308
2017-09-10T11:21:44.429Z,15992
2017-09-10T11:22:46.165Z,18336
2017-09-10T11:23:47.865Z,19488
2017-09-10T11:24:49.668Z,20256
2017-09-10T11:25:51.375Z,20800
2017-09-10T11:26:53.090Z,21024
2017-09-10T11:27:54.791Z,21056
2017-09-10T11:28:56.552Z,21024
2017-09-10T11:29:58.250Z,21184
2017-09-10T11:30:59.975Z,21312
2017-09-10T11:32:01.694Z,21152
2017-09-10T11:33:03.428Z,20992
2017-09-10T11:34:05.146Z,20736
2017-09-10T11:35:06.879Z,20832
2017-09-10T11:36:08.630Z,21152
2017-09-10T11:37:10.353Z,21216
2017-09-10T11:38:12.090Z,21504
2017-09-10T11:39:13.805Z,21696
2017-09-10T11:40:15.525Z,21760
2017-09-10T11:41:17.234Z,22080
2017-09-10T11:42:18.959Z,22368
2017-09-10T11:43:20.695Z,22592
2017-09-10T11:44:22.407Z,22624
2017-09-10T11:45:24.199Z,22656
2017-09-10T11:46:25.896Z,22784
2017-09-10T11:47:27.603Z,22880
2017-09-10T11:48:29.394Z,23008
2017-09-10T11:49:31.097Z,22912
2017-09-10T11:50:32.812Z,23392
2017-09-10T11:51:34.533Z,23584
2017-09-10T11:52:36.250Z,23648
2017-09-10T11:53:37.969Z,24000
2017-09-10T11:54:39.686Z,24288
2017-09-10T11:55:41.409Z,24832
2017-09-10T11:56:43.121Z,25344
2017-09-10T11:57:44.851Z,25792
2017-09-10T11:58:46.564Z,26848
2017-09-10T11:59:48.288Z,26048
2017-09-10T12:00:50.021Z,26080
2017-09-10T12:01:51.740Z,27520
2017-09-10T12:02:53.451Z,27872
2017-09-10T12:03:55.153Z,28000
2017-09-10T12:04:56.873Z,29568
2017-09-10T12:05:58.588Z,29920
2017-09-10T12:07:00.316Z,29312
2017-09-10T12:08:02.034Z,28384
2017-09-10T12:09:03.755Z,29568
2017-09-10T12:10:05.478Z,29440
2017-09-10T12:11:07.190Z,30368
2017-09-10T12:12:08.934Z,28832
2017-09-10T12:13:10.654Z,30624
2017-09-10T12:14:12.432Z,31072
2017-09-10T12:15:14.182Z,31392
2017-09-10T12:16:15.912Z,32320
2017-09-10T12:17:17.619Z,34080
2017-09-10T12:18:19.357Z,32928
2017-09-10T12:19:21.099Z,32096
2017-09-10T12:20:22.807Z,31936
2017-09-10T12:21:24.519Z,31808
2017-09-10T12:22:26.256Z,32384
2017-09-10T12:23:27.969Z,33152
2017-09-10T12:24:29.772Z,34816
2017-09-10T12:25:31.498Z,36288
2017-09-10T12:26:33.212Z,35776
2017-09-10T12:27:34.930Z,35488
2017-09-10T12:28:36.652Z,34944
2017-09-10T12:29:38.376Z,34976
2017-09-10T12:30:40.098Z,34208
2017-09-10T12:31:41.842Z,34272
2017-09-10T12:32:43.589Z,34592
2017-09-10T12:33:45.303Z,34688
2017-09-10T12:34:47.052Z,34112
2017-09-10T12:35:48.812Z,33760
2017-09-10T12:36:50.549Z,34080
2017-09-10T12:37:52.267Z,34336
2017-09-10T12:38:53.991Z,34336
2017-09-10T12:39:55.714Z,33696
2017-09-10T12:40:57.445Z,34272
2017-09-10T12:41:59.161Z,35456
2017-09-10T12:43:00.874Z,35744
2017-09-10T12:44:03.128Z,35680
2017-09-10T12:45:06.300Z,34336
2017-09-10T12:46:07.861Z,36064
2017-09-10T12:47:09.570Z,36544
2017-09-10T12:48:11.302Z,37984
2017-09-10T12:49:13.534Z,38560
2017-09-10T12:50:15.250Z,37248
2017-09-10T12:51:16.955Z,35904
2017-09-10T12:52:18.659Z,35712
2017-09-10T12:53:20.398Z,36704
2017-09-10T12:54:22.096Z,37792
2017-09-10T12:55:23.827Z,38336
2017-09-10T12:56:25.539Z,38304
2017-09-10T12:57:27.265Z,36800
2017-09-10T12:58:29.017Z,34144
2017-09-10T12:59:30.809Z,38624
2017-09-10T13:00:32.534Z,39552
2017-09-10T13:01:34.262Z,38432
2017-09-10T13:02:35.992Z,39040
2017-09-10T13:03:37.734Z,40928
2017-09-10T13:04:39.469Z,40480
2017-09-10T13:05:41.199Z,40704
2017-09-10T13:06:42.917Z,40672
2017-09-10T13:07:44.667Z,40992
2017-09-10T13:08:46.376Z,42656
2017-09-10T13:09:48.102Z,43040
2017-09-10T13:10:49.840Z,43200
2017-09-10T13:11:51.564Z,43232
2017-09-10T13:12:53.314Z,44832
2017-09-10T13:13:55.070Z,46080
2017-09-10T13:14:56.876Z,50400
2017-09-10T13:15:58.598Z,49920
2017-09-10T13:17:00.313Z,49920
2017-09-10T13:18:02.049Z,51168
2017-09-10T13:19:03.795Z,53312
2017-09-10T13:20:05.518Z,24000
2017-09-10T13:21:07.268Z,54208
2017-09-10T13:22:09.006Z,57824
2017-09-10T13:23:10.730Z,58240
2017-09-10T13:24:12.439Z,64704
2017-09-10T13:25:14.179Z,81856
2017-09-10T13:26:15.907Z,112704
2017-09-10T13:27:17.641Z,132096
2017-09-10T13:28:19.387Z,143776
2017-09-10T13:29:21.148Z,149632
2017-09-10T13:30:22.898Z,136352
2017-09-10T13:31:24.636Z,125696
2017-09-10T13:32:26.373Z,126912
2017-09-10T13:33:28.103Z,147424
2017-09-10T13:34:29.820Z,143008
2017-09-10T13:35:31.573Z,137216
2017-09-10T13:36:33.286Z,143360
2017-09-10T13:37:35.020Z,148032
2017-09-10T13:38:36.760Z,145216
2017-09-10T13:39:38.463Z,109856
2017-09-10T13:40:40.198Z,64448
2017-09-10T13:41:41.949Z,33856
2017-09-10T13:42:43.672Z,24896
2017-09-10T13:43:45.394Z,22912
2017-09-10T13:44:47.109Z,21024
2017-09-10T13:45:48.814Z,19872
2017-09-10T13:46:50.523Z,20480
2017-09-10T13:47:52.243Z,19968
2017-09-10T13:48:53.978Z,19360
2017-09-10T13:49:55.694Z,19648
2017-09-10T13:50:57.422Z,20000
2017-09-10T13:51:59.144Z,19328
2017-09-10T13:53:00.850Z,20288
2017-09-10T13:54:02.571Z,20480
2017-09-10T13:55:04.302Z,20864
2017-09-10T13:56:06.010Z,21728
2017-09-10T13:57:07.734Z,45536
2017-09-10T13:58:09.447Z,88096
2017-09-10T13:59:11.185Z,96576
2017-09-10T14:00:12.922Z,83648
2017-09-10T14:01:14.654Z,38240
2017-09-10T14:02:16.381Z,21920
2017-09-10T14:03:18.121Z,20864
2017-09-10T14:04:19.835Z,20416
2017-09-10T14:05:21.558Z,20224
2017-09-10T14:06:23.280Z,19872
2017-09-10T14:07:25.015Z,19712
2017-09-10T14:08:26.727Z,19744
2017-09-10T14:09:28.453Z,19808
2017-09-10T14:10:30.161Z,19808
2017-09-10T14:11:31.958Z,19712
2017-09-10T14:12:33.675Z,19712